createdAt,value
2022-07-25T00:02:07.301Z,22.23
2022-07-25T00:07:10.493Z,21.96
2022-07-25T00:12:12.078Z,22.12
2022-07-25T00:17:14.174Z,22.14
2022-07-25T00:22:15.797Z,22.16
2022-07-25T00:27:17.392Z,22.14
2022-07-25T00:32:19.044Z,21.92
2022-07-25T00:37:20.657Z,22.01
2022-07-25T00:42:24.130Z,21.86
2022-07-25T00:47:26.114Z,21.90
2022-07-25T00:52:27.839Z,21.82
2022-07-25T00:57:29.406Z,21.67
2022-07-25T01:02:31.059Z,21.74
2022-07-25T01:07:32.928Z,21.47
2022-07-25T01:12:52.571Z,21.59
2022-07-25T01:17:54.373Z,21.40
2022-07-25T01:22:56.722Z,21.32
2022-07-25T01:27:58.463Z,21.30
2022-07-25T01:33:00.468Z,21.40
2022-07-25T01:38:08.801Z,21.42
2022-07-25T01:43:11.257Z,21.29
2022-07-25T01:48:12.878Z,21.22
2022-07-25T01:53:14.534Z,21.29
2022-07-25T01:58:16.156Z,21.22
2022-07-25T02:03:30.112Z,21.08
2022-07-25T02:08:31.952Z,20.98
2022-07-25T02:13:34.985Z,21.07
2022-07-25T02:18:36.656Z,20.92
2022-07-25T02:23:38.320Z,20.81
2022-07-25T02:28:40.711Z,20.90
2022-07-25T02:33:42.440Z,20.91
2022-07-25T02:38:44.027Z,20.69
2022-07-25T02:43:45.586Z,20.54
2022-07-25T02:48:47.316Z,20.82
2022-07-25T02:53:58.282Z,20.93
2022-07-25T02:59:00.395Z,20.99
2022-07-25T03:04:02.069Z,20.78
2022-07-25T03:09:04.590Z,20.86
2022-07-25T03:14:08.491Z,20.96
2022-07-25T03:19:10.409Z,20.91
2022-07-25T03:24:12.055Z,20.84
2022-07-25T03:29:13.876Z,20.67
2022-07-25T03:34:15.540Z,20.87
2022-07-25T03:39:17.260Z,20.71
2022-07-25T03:44:20.151Z,20.46
2022-07-25T03:49:21.771Z,20.73
2022-07-25T03:54:23.341Z,20.77
2022-07-25T03:59:26.234Z,20.96
2022-07-25T04:04:27.830Z,21.03
2022-07-25T04:09:31.111Z,21.03
2022-07-25T04:14:35.319Z,21.19
2022-07-25T04:19:37.065Z,21.33
2022-07-25T04:24:38.737Z,21.38
2022-07-25T04:29:40.338Z,21.61
2022-07-25T04:34:43.751Z,21.72
2022-07-25T04:39:45.374Z,22.04
2022-07-25T04:44:47.017Z,22.01
2022-07-25T04:49:48.644Z,22.28
2022-07-25T04:54:50.219Z,22.62
2022-07-25T04:59:51.941Z,22.66
2022-07-25T05:04:53.536Z,22.74
2022-07-25T05:09:55.262Z,22.80
2022-07-25T05:14:57.047Z,23.04
2022-07-25T05:19:58.926Z,23.34
2022-07-25T05:25:02.418Z,23.61
2022-07-25T05:30:05.825Z,23.76
2022-07-25T05:35:09.089Z,24.02
2022-07-25T05:40:10.823Z,24.47
2022-07-25T05:45:12.718Z,24.45
2022-07-25T05:50:14.360Z,24.69
2022-07-25T05:55:16.006Z,24.94
2022-07-25T06:00:17.857Z,25.04
2022-07-25T06:05:19.471Z,25.29
2022-07-25T06:10:21.626Z,25.53
2022-07-25T06:15:26.882Z,25.64
2022-07-25T06:20:28.786Z,25.98
2022-07-25T06:25:30.977Z,25.95
2022-07-25T06:30:33.436Z,26.00
2022-07-25T06:35:35.188Z,26.32
2022-07-25T06:40:36.784Z,26.44
2022-07-25T06:45:38.465Z,26.51
2022-07-25T06:50:41.635Z,26.68
2022-07-25T06:55:43.310Z,26.79
2022-07-25T07:00:44.919Z,26.78
2022-07-25T07:05:46.695Z,26.97
2022-07-25T07:10:48.543Z,27.06
2022-07-25T07:15:50.898Z,27.23
2022-07-25T07:20:52.967Z,27.39
2022-07-25T07:25:54.615Z,27.21
2022-07-25T07:31:15.893Z,27.58
2022-07-25T07:36:17.984Z,27.51
2022-07-25T07:41:19.642Z,27.83
2022-07-25T07:46:21.276Z,27.88
2022-07-25T07:51:22.881Z,27.89
2022-07-25T07:56:24.502Z,27.83
2022-07-25T08:01:26.985Z,28.11
2022-07-25T08:06:29.043Z,28.40
2022-07-25T08:11:30.718Z,28.44
2022-07-25T08:16:32.941Z,28.55
2022-07-25T08:21:34.562Z,28.53
2022-07-25T08:26:37.298Z,28.76
2022-07-25T08:31:38.995Z,28.62
2022-07-25T08:36:40.737Z,28.78
2022-07-25T08:41:42.534Z,29.11
2022-07-25T08:46:45.515Z,29.16
2022-07-25T08:51:47.646Z,29.00
2022-07-25T08:56:53.260Z,28.94
2022-07-25T09:01:54.989Z,28.92
2022-07-25T09:06:56.633Z,28.98
2022-07-25T09:11:58.668Z,29.27
2022-07-25T09:17:06.405Z,29.14
2022-07-25T09:22:24.289Z,29.09
2022-07-25T09:27:25.946Z,29.18
2022-07-25T09:32:27.579Z,29.54
2022-07-25T09:37:29.215Z,29.62
2022-07-25T09:42:32.553Z,29.57
2022-07-25T09:47:36.977Z,29.68
2022-07-25T09:52:38.902Z,29.78
2022-07-25T09:57:41.151Z,29.65
2022-07-25T10:02:49.801Z,29.90
2022-07-25T10:07:53.430Z,29.89
2022-07-25T10:13:08.027Z,29.71
2022-07-25T10:18:13.387Z,29.93
2022-07-25T10:23:26.332Z,29.98
2022-07-25T10:28:39.807Z,29.89
2022-07-25T10:33:42.272Z,30.06
2022-07-25T10:38:45.962Z,30.23
2022-07-25T10:43:50.723Z,30.13
2022-07-25T10:49:03.390Z,30.10
2022-07-25T10:54:18.201Z,29.98
2022-07-25T10:59:46.798Z,30.19
2022-07-25T11:04:59.384Z,30.21
2022-07-25T11:10:03.011Z,30.38
2022-07-25T11:15:06.879Z,30.21
2022-07-25T11:20:10.625Z,30.28
2022-07-25T11:25:16.285Z,30.40
2022-07-25T11:30:19.944Z,30.45
2022-07-25T11:35:39.641Z,30.20
2022-07-25T11:40:44.705Z,30.38
2022-07-25T11:45:56.950Z,30.42
2022-07-25T11:50:58.798Z,30.50
2022-07-25T11:56:39.835Z,30.60
2022-07-25T12:01:37.555Z,30.54
2022-07-25T12:06:39.937Z,30.64
2022-07-25T12:11:41.830Z,30.67
2022-07-25T12:16:43.552Z,30.65
2022-07-25T12:21:45.628Z,30.94
2022-07-25T12:26:47.270Z,30.82
2022-07-25T12:31:48.943Z,31.05
2022-07-25T12:36:50.675Z,30.88
2022-07-25T12:41:52.238Z,30.77
2022-07-25T12:46:53.841Z,30.62
2022-07-25T12:51:58.219Z,30.82
2022-07-25T12:57:00.228Z,30.70
2022-07-25T13:02:01.980Z,30.74
2022-07-25T13:07:03.923Z,30.89
2022-07-25T13:12:06.045Z,30.98
2022-07-25T13:17:07.799Z,30.98
2022-07-25T13:22:09.611Z,30.75
2022-07-25T13:27:11.508Z,30.72
2022-07-25T13:32:13.650Z,30.75
2022-07-25T13:37:15.562Z,30.80
2022-07-25T13:42:17.310Z,30.85
2022-07-25T13:47:19.008Z,30.80
2022-07-25T13:52:20.718Z,31.02
2022-07-25T13:57:22.394Z,30.88
2022-07-25T14:02:24.115Z,31.04
2022-07-25T14:07:25.806Z,31.22
2022-07-25T14:12:27.661Z,31.16
2022-07-25T14:17:30.455Z,31.35
2022-07-25T14:22:32.346Z,31.52
2022-07-25T14:27:34.443Z,31.29
2022-07-25T14:32:36.356Z,31.18
2022-07-25T14:37:38.125Z,31.18
2022-07-25T14:42:41.774Z,31.51
2022-07-25T14:47:43.394Z,31.33
2022-07-25T14:52:45.025Z,31.23
2022-07-25T14:57:46.671Z,31.41
2022-07-25T15:02:48.259Z,31.28
2022-07-25T15:07:49.838Z,31.34
2022-07-25T15:13:07.595Z,31.53
2022-07-25T15:18:14.132Z,31.41
2022-07-25T15:23:15.905Z,31.36
2022-07-25T15:28:17.923Z,31.50
2022-07-25T15:33:19.798Z,31.40
2022-07-25T15:38:21.455Z,31.42
2022-07-25T15:43:24.019Z,31.54
2022-07-25T15:48:27.673Z,31.60
2022-07-25T15:53:30.274Z,31.80
2022-07-25T15:58:31.886Z,31.72
2022-07-25T16:03:33.535Z,31.73
2022-07-25T16:08:36.274Z,31.75
2022-07-25T16:13:37.858Z,31.71
2022-07-25T16:18:39.523Z,31.87
2022-07-25T16:23:45.510Z,31.90
2022-07-25T16:28:47.591Z,31.86
2022-07-25T16:33:49.347Z,31.80
2022-07-25T16:38:53.325Z,31.76
2022-07-25T16:43:54.928Z,31.63
2022-07-25T16:48:56.616Z,31.90
2022-07-25T16:53:58.312Z,31.70
2022-07-25T16:59:00.993Z,31.71
2022-07-25T17:04:02.981Z,31.87
2022-07-25T17:09:05.428Z,31.69
2022-07-25T17:14:07.326Z,31.53
2022-07-25T17:19:09.285Z,31.51
2022-07-25T17:24:11.237Z,31.56
2022-07-25T17:29:12.915Z,31.35
2022-07-25T17:34:14.539Z,31.29
2022-07-25T17:39:16.417Z,31.13
2022-07-25T17:44:18.529Z,31.10
2022-07-25T17:49:21.654Z,31.18
2022-07-25T17:54:23.415Z,30.93
2022-07-25T17:59:25.279Z,30.90
2022-07-25T18:04:27.092Z,30.94
2022-07-25T18:09:29.217Z,30.69
2022-07-25T18:14:31.125Z,30.60
2022-07-25T18:19:33.024Z,30.17
2022-07-25T18:24:34.766Z,29.81
2022-07-25T18:29:38.458Z,29.62
2022-07-25T18:34:40.152Z,29.35
2022-07-25T18:39:42.462Z,29.13
2022-07-25T18:44:44.080Z,29.02
2022-07-25T18:49:45.725Z,28.85
2022-07-25T18:54:47.481Z,28.77
2022-07-25T18:59:49.092Z,28.80
2022-07-25T19:04:50.747Z,28.82
2022-07-25T19:09:52.338Z,28.48
2022-07-25T19:14:54.737Z,28.42
2022-07-25T19:19:56.409Z,28.06
2022-07-25T19:24:57.986Z,27.99
2022-07-25T19:29:59.774Z,27.89
2022-07-25T19:35:02.379Z,27.90
2022-07-25T19:40:06.417Z,27.86
2022-07-25T19:45:09.748Z,27.88
2022-07-25T19:50:11.424Z,27.94
2022-07-25T19:55:13.173Z,27.92
2022-07-25T20:00:15.212Z,27.89
2022-07-25T20:05:17.210Z,27.78
2022-07-25T20:10:18.932Z,27.74
2022-07-25T20:15:20.747Z,27.74
2022-07-25T20:20:22.501Z,27.67
2022-07-25T20:25:24.289Z,27.59
2022-07-25T20:30:26.169Z,27.45
2022-07-25T20:35:33.935Z,26.64
2022-07-25T20:40:35.790Z,26.95
2022-07-25T20:45:38.744Z,26.77
2022-07-25T20:50:40.588Z,26.80
2022-07-25T20:55:42.284Z,26.22
2022-07-25T21:00:44.136Z,26.41
2022-07-25T21:05:45.788Z,26.55
2022-07-25T21:10:47.379Z,26.52
2022-07-25T21:15:48.949Z,26.65
2022-07-25T21:20:51.041Z,26.59
2022-07-25T21:25:52.909Z,26.60
2022-07-25T21:30:54.546Z,26.42
2022-07-25T21:35:56.142Z,26.40
2022-07-25T21:40:57.982Z,26.35
2022-07-25T21:45:59.674Z,26.26
2022-07-25T21:51:01.327Z,26.24
2022-07-25T21:56:09.352Z,25.95
2022-07-25T22:01:11.187Z,25.88
2022-07-25T22:06:12.915Z,26.12
2022-07-25T22:11:20.720Z,25.78
2022-07-25T22:16:36.176Z,25.64
2022-07-25T22:21:39.429Z,25.61
2022-07-25T22:26:41.106Z,25.59
2022-07-25T22:31:44.525Z,25.67
2022-07-25T22:36:46.475Z,25.84
2022-07-25T22:41:48.149Z,25.78
2022-07-25T22:46:49.820Z,25.73
2022-07-25T22:51:51.409Z,25.71
2022-07-25T22:56:53.041Z,25.46
2022-07-25T23:01:54.978Z,25.38
2022-07-25T23:06:56.610Z,25.16
2022-07-25T23:11:58.537Z,25.18
2022-07-25T23:17:18.447Z,25.15
2022-07-25T23:22:21.453Z,24.89
2022-07-25T23:27:23.294Z,25.19
2022-07-25T23:32:24.907Z,25.03
2022-07-25T23:37:26.657Z,24.96
2022-07-25T23:42:28.223Z,24.94
2022-07-25T23:47:39.286Z,24.96
2022-07-25T23:52:42.238Z,24.82
2022-07-25T23:57:43.866Z,24.62
